Time;durP1;ratioP1;P1;durP2;ratioP2;P2;SDS_P1;SDS_P2;PMS_P1;PMS_P2;Temp;Humidity;BMP_temperature;BMP_pressure;BME280_temperature;BME280_humidity;BME280_pressure;Samples;Min_cycle;Max_cycle;Signal;HPM_P1;HPM_P2
2022/11/16 00:00:18;;;;;;;3.10;1.10;;;;;;;;;;5009876;28;20053;-64
2022/11/16 00:02:50;;;;;;;3.15;1.42;;;;;;;;;;5009772;28;20057;-64
2022/11/16 00:05:21;;;;;;;6.85;1.55;;;;;;;;;;5009875;28;20057;-64
2022/11/16 00:07:57;;;;;;;5.75;1.70;;;;;;;;;;4977232;28;20061;-63
2022/11/16 00:10:47;;;;;;;4.60;1.85;;;;;;;;;;4990050;28;20059;-64
2022/11/16 00:13:18;;;;;;;5.65;1.75;;;;;;;;;;4970316;28;20054;-64
2022/11/16 00:15:56;;;;;;;4.30;1.10;;;;;;;;;;4970565;28;20070;-63
2022/11/16 00:18:27;;;;;;;2.38;1.25;;;;;;;;;;4970283;28;20062;-63
2022/11/16 00:20:59;;;;;;;6.78;1.40;;;;;;;;;;4954870;28;20522;-63
2022/11/16 00:23:29;;;;;;;3.70;1.30;;;;;;;;;;4938622;28;20055;-63
2022/11/16 00:26:04;;;;;;;2.63;1.25;;;;;;;;;;4950080;28;20464;-63
2022/11/16 00:28:35;;;;;;;4.18;1.17;;;;;;;;;;4930063;29;20420;-64
2022/11/16 00:31:07;;;;;;;4.75;1.80;;;;;;;;;;4932104;29;20070;-63
2022/11/16 00:33:38;;;;;;;3.90;1.42;;;;;;;;;;4900799;29;20056;-63
2022/11/16 00:36:11;;;;;;;8.75;2.10;;;;;;;;;;4932179;29;20554;-63
2022/11/16 00:38:42;;;;;;;4.53;1.30;;;;;;;;;;4947405;29;20051;-63
2022/11/16 00:41:14;;;;;;;5.13;1.10;;;;;;;;;;4947924;29;20074;-63
2022/11/16 00:43:44;;;;;;;7.93;1.30;;;;;;;;;;4950911;29;20059;-63
2022/11/16 00:46:14;;;;;;;4.97;1.45;;;;;;;;;;4966614;28;20642;-63
2022/11/16 00:48:45;;;;;;;2.92;1.27;;;;;;;;;;4951021;29;20070;-63
2022/11/16 00:51:15;;;;;;;3.17;0.95;;;;;;;;;;4945247;29;20059;-63
2022/11/16 00:53:45;;;;;;;3.75;1.08;;;;;;;;;;4915585;29;20157;-63
2022/11/16 00:56:15;;;;;;;3.30;1.45;;;;;;;;;;4928225;29;20052;-63
2022/11/16 00:58:46;;;;;;;8.38;1.25;;;;;;;;;;4928115;29;20048;-63
2022/11/16 01:01:17;;;;;;;7.53;1.30;;;;;;;;;;4928202;29;20067;-63
2022/11/16 01:03:48;;;;;;;10.73;1.60;;;;;;;;;;4903444;29;20048;-64
2022/11/16 01:06:19;;;;;;;5.22;1.30;;;;;;;;;;4916590;29;20493;-66
2022/11/16 01:08:50;;;;;;;3.53;1.20;;;;;;;;;;4912245;29;20047;-63
2022/11/16 01:14:10;;;;;;;10.98;1.35;;;;;;;;;;4931546;29;20101;-63
2022/11/16 01:16:42;;;;;;;5.95;1.13;;;;;;;;;;4930837;29;20056;-63
2022/11/16 01:19:12;;;;;;;3.50;1.20;;;;;;;;;;4945704;28;20051;-63
2022/11/16 01:21:43;;;;;;;5.82;1.15;;;;;;;;;;4931651;29;20519;-63
2022/11/16 01:24:13;;;;;;;3.53;1.35;;;;;;;;;;4883653;29;20471;-62
2022/11/16 01:26:43;;;;;;;4.38;1.30;;;;;;;;;;4931186;29;20650;-63
2022/11/16 01:29:32;;;;;;;13.13;1.50;;;;;;;;;;4931791;29;20436;-63
2022/11/16 01:32:03;;;;;;;5.78;1.17;;;;;;;;;;4904339;29;20408;-63
2022/11/16 01:34:34;;;;;;;4.13;1.00;;;;;;;;;;4950348;29;20051;-63
2022/11/16 01:37:13;;;;;;;4.47;1.25;;;;;;;;;;4950391;28;20082;-63
2022/11/16 01:39:43;;;;;;;5.53;1.20;;;;;;;;;;4891662;29;20059;-63
2022/11/16 01:42:21;;;;;;;2.60;1.13;;;;;;;;;;4906634;29;20058;-63
2022/11/16 01:45:26;;;;;;;7.60;1.48;;;;;;;;;;4969155;28;20055;-63
2022/11/16 01:47:57;;;;;;;3.00;1.27;;;;;;;;;;4914317;29;20072;-64
2022/11/16 01:50:32;;;;;;;2.60;1.13;;;;;;;;;;4896779;29;20079;-64
2022/11/16 01:53:23;;;;;;;3.47;1.20;;;;;;;;;;4865070;29;20053;-63
2022/11/16 01:55:57;;;;;;;5.35;1.60;;;;;;;;;;4889704;29;20429;-65
2022/11/16 01:58:46;;;;;;;4.60;1.23;;;;;;;;;;4877603;29;20053;-63
2022/11/16 02:01:25;;;;;;;4.82;1.35;;;;;;;;;;4852742;29;20050;-63
2022/11/16 02:04:00;;;;;;;6.03;1.40;;;;;;;;;;4871415;29;20065;-63
2022/11/16 02:06:59;;;;;;;5.18;1.23;;;;;;;;;;4896248;29;20056;-64
2022/11/16 02:10:00;;;;;;;4.30;1.15;;;;;;;;;;4903874;29;20063;-64
2022/11/16 02:12:52;;;;;;;6.50;1.23;;;;;;;;;;4872910;29;20068;-63
2022/11/16 02:15:44;;;;;;;5.88;1.40;;;;;;;;;;4840603;29;20175;-64
2022/11/16 02:18:27;;;;;;;5.35;1.73;;;;;;;;;;4840683;29;20061;-63
2022/11/16 02:21:10;;;;;;;5.20;1.35;;;;;;;;;;4877448;29;20545;-63
2022/11/16 02:24:03;;;;;;;5.70;1.35;;;;;;;;;;4842925;29;20049;-64
2022/11/16 02:27:00;;;;;;;7.60;1.75;;;;;;;;;;4870967;29;20503;-64
2022/11/16 02:29:50;;;;;;;4.32;1.48;;;;;;;;;;4840949;29;20587;-65
2022/11/16 02:32:41;;;;;;;5.22;1.60;;;;;;;;;;4891480;29;20197;-64
2022/11/16 02:35:29;;;;;;;4.80;1.58;;;;;;;;;;4914983;29;20049;-66
2022/11/16 02:38:10;;;;;;;6.10;1.52;;;;;;;;;;4917893;29;20436;-65
2022/11/16 02:40:45;;;;;;;5.38;1.67;;;;;;;;;;4883435;29;20060;-63
2022/11/16 02:43:37;;;;;;;5.60;1.38;;;;;;;;;;4875903;29;20572;-64
2022/11/16 02:46:25;;;;;;;3.67;1.42;;;;;;;;;;4876869;29;20075;-64
2022/11/16 02:48:59;;;;;;;4.75;1.48;;;;;;;;;;4895218;29;20059;-64
2022/11/16 02:51:32;;;;;;;6.28;1.50;;;;;;;;;;4895600;29;20048;-64
2022/11/16 02:54:11;;;;;;;2.78;1.52;;;;;;;;;;4876602;29;20057;-66
2022/11/16 02:56:51;;;;;;;7.57;1.42;;;;;;;;;;4895366;29;20072;-64
2022/11/16 02:59:30;;;;;;;7.43;2.15;;;;;;;;;;4865260;29;20076;-64
2022/11/16 03:02:27;;;;;;;4.70;1.73;;;;;;;;;;4892131;29;20104;-63
2022/11/16 03:05:36;;;;;;;4.18;1.58;;;;;;;;;;4902188;29;20057;-64
2022/11/16 03:08:17;;;;;;;5.30;1.52;;;;;;;;;;4895143;29;20057;-64
2022/11/16 03:14:06;;;;;;;7.40;2.40;;;;;;;;;;4840636;29;20057;-64
2022/11/16 03:16:44;;;;;;;5.43;1.73;;;;;;;;;;4844348;29;20065;-63
2022/11/16 03:19:21;;;;;;;5.88;1.80;;;;;;;;;;4862729;29;20075;-64
2022/11/16 03:21:57;;;;;;;4.13;1.80;;;;;;;;;;4869894;29;20052;-64
2022/11/16 03:24:28;;;;;;;6.75;1.48;;;;;;;;;;4885356;29;20103;-65
2022/11/16 03:27:08;;;;;;;4.90;1.92;;;;;;;;;;4889373;29;20060;-63
2022/11/16 03:29:53;;;;;;;7.18;1.92;;;;;;;;;;4869128;29;20049;-64
2022/11/16 03:32:45;;;;;;;4.10;1.63;;;;;;;;;;4861874;29;20061;-66
2022/11/16 03:35:24;;;;;;;4.72;1.95;;;;;;;;;;4881095;29;20068;-64
2022/11/16 03:37:58;;;;;;;5.78;1.83;;;;;;;;;;4860869;29;20477;-63
2022/11/16 03:40:32;;;;;;;6.10;1.90;;;;;;;;;;4860650;29;20045;-65
2022/11/16 03:43:05;;;;;;;8.98;1.75;;;;;;;;;;4898235;29;20057;-64
2022/11/16 03:45:36;;;;;;;4.43;1.55;;;;;;;;;;4850910;29;20054;-65
2022/11/16 03:48:08;;;;;;;4.13;1.40;;;;;;;;;;4913384;29;20179;-67
2022/11/16 03:50:40;;;;;;;6.80;1.73;;;;;;;;;;4911196;29;20052;-64
2022/11/16 03:53:11;;;;;;;4.90;1.50;;;;;;;;;;4905600;29;20514;-65
2022/11/16 03:55:41;;;;;;;3.83;1.63;;;;;;;;;;4894463;29;20060;-65
2022/11/16 03:58:18;;;;;;;3.40;1.33;;;;;;;;;;4909860;29;20075;-65
2022/11/16 04:00:48;;;;;;;6.57;1.42;;;;;;;;;;4896546;29;20059;-65
2022/11/16 04:03:19;;;;;;;4.70;1.48;;;;;;;;;;4931908;29;20104;-64
2022/11/16 04:25:53;;;;;;;4.95;1.58;;;;;;;;;;4884248;29;20053;-65
2022/11/16 04:28:29;;;;;;;5.15;1.35;;;;;;;;;;4912974;29;20052;-65
2022/11/16 04:39:45;;;;;;;3.75;1.25;;;;;;;;;;4931832;29;20071;-65
2022/11/16 04:42:21;;;;;;;3.50;1.42;;;;;;;;;;4899998;29;20055;-65
2022/11/16 04:47:50;;;;;;;8.10;1.77;;;;;;;;;;4916551;29;20059;-66
2022/11/16 04:50:27;;;;;;;4.22;1.70;;;;;;;;;;4912583;29;20044;-65
2022/11/16 04:53:00;;;;;;;5.03;1.33;;;;;;;;;;4857916;29;20053;-66
2022/11/16 04:55:44;;;;;;;6.82;1.27;;;;;;;;;;4826720;29;20562;-65
2022/11/16 04:58:16;;;;;;;3.80;1.40;;;;;;;;;;4764855;29;20058;-65
2022/11/16 05:00:56;;;;;;;4.00;1.67;;;;;;;;;;4820034;29;20061;-65
2022/11/16 05:03:29;;;;;;;4.30;1.17;;;;;;;;;;4838194;29;20062;-65
2022/11/16 05:06:14;;;;;;;7.85;1.45;;;;;;;;;;4832234;29;20054;-65
2022/11/16 05:08:50;;;;;;;6.40;1.63;;;;;;;;;;4847820;29;20049;-65
2022/11/16 05:11:22;;;;;;;4.95;1.35;;;;;;;;;;4874871;29;20433;-65
2022/11/16 05:14:23;;;;;;;3.03;1.27;;;;;;;;;;4889531;29;20068;-65
2022/11/16 05:16:54;;;;;;;3.60;1.10;;;;;;;;;;4897171;29;20045;-65
2022/11/16 05:22:16;;;;;;;2.88;1.15;;;;;;;;;;4904384;29;20047;-65
2022/11/16 05:24:47;;;;;;;5.72;1.30;;;;;;;;;;4874388;29;20057;-65
2022/11/16 05:27:23;;;;;;;4.63;1.60;;;;;;;;;;4915964;29;20052;-65
2022/11/16 05:29:55;;;;;;;4.65;1.17;;;;;;;;;;4915715;29;20078;-66
2022/11/16 05:32:30;;;;;;;4.28;1.27;;;;;;;;;;4915631;29;20519;-65
2022/11/16 05:35:01;;;;;;;3.53;1.38;;;;;;;;;;4899953;29;20405;-65
2022/11/16 05:37:33;;;;;;;2.95;1.20;;;;;;;;;;4857553;29;20507;-65
2022/11/16 05:40:04;;;;;;;2.65;0.93;;;;;;;;;;4859557;29;20053;-66
2022/11/16 05:42:42;;;;;;;4.82;1.52;;;;;;;;;;4851337;29;20054;-66
2022/11/16 05:45:13;;;;;;;4.80;1.30;;;;;;;;;;4798644;29;20082;-65
2022/11/16 05:47:50;;;;;;;3.20;1.23;;;;;;;;;;4804644;29;20397;-66
2022/11/16 05:50:21;;;;;;;4.32;1.65;;;;;;;;;;4859505;29;20462;-66
2022/11/16 05:53:04;;;;;;;2.65;1.10;;;;;;;;;;4871836;29;20048;-66
2022/11/16 05:55:35;;;;;;;2.78;1.50;;;;;;;;;;4810913;29;20439;-66
2022/11/16 05:58:06;;;;;;;3.85;1.27;;;;;;;;;;4874394;29;20057;-65
2022/11/16 06:00:38;;;;;;;2.90;1.13;;;;;;;;;;4912016;29;20513;-65
2022/11/16 06:03:10;;;;;;;2.88;1.10;;;;;;;;;;4884954;29;20061;-65
2022/11/16 06:05:42;;;;;;;2.97;1.10;;;;;;;;;;4839740;29;20205;-65
2022/11/16 06:08:15;;;;;;;3.97;1.10;;;;;;;;;;4868678;29;20571;-65
2022/11/16 06:10:48;;;;;;;2.80;1.40;;;;;;;;;;4863706;29;20049;-65
2022/11/16 06:13:18;;;;;;;4.00;1.20;;;;;;;;;;4877598;29;20064;-65
2022/11/16 06:15:53;;;;;;;4.13;1.20;;;;;;;;;;4859752;29;20045;-65
2022/11/16 06:18:24;;;;;;;2.47;1.58;;;;;;;;;;4825649;29;20458;-65
2022/11/16 06:20:55;;;;;;;6.95;1.13;;;;;;;;;;4814360;29;20043;-65
2022/11/16 06:23:26;;;;;;;3.75;1.25;;;;;;;;;;4804229;29;20069;-65
2022/11/16 06:25:57;;;;;;;5.10;1.50;;;;;;;;;;4809290;29;20055;-65
2022/11/16 06:28:29;;;;;;;4.10;1.10;;;;;;;;;;4840333;29;20065;-66
2022/11/16 06:31:00;;;;;;;3.00;1.45;;;;;;;;;;4872763;29;20398;-65
2022/11/16 06:33:35;;;;;;;3.45;1.48;;;;;;;;;;4895882;29;20441;-66
2022/11/16 06:36:12;;;;;;;3.40;1.40;;;;;;;;;;4886199;29;20049;-65
2022/11/16 06:38:43;;;;;;;2.90;1.15;;;;;;;;;;4883554;29;20416;-66
2022/11/16 06:41:15;;;;;;;4.80;1.00;;;;;;;;;;4852667;29;20057;-69
2022/11/16 06:43:49;;;;;;;3.83;1.50;;;;;;;;;;4827697;29;20050;-66
2022/11/16 06:46:23;;;;;;;2.70;0.90;;;;;;;;;;4858521;29;20072;-66
2022/11/16 06:48:56;;;;;;;2.75;1.00;;;;;;;;;;4858349;29;20064;-66
2022/11/16 06:51:27;;;;;;;2.25;1.05;;;;;;;;;;4845907;29;20584;-65
2022/11/16 06:53:58;;;;;;;3.28;1.45;;;;;;;;;;4876672;29;20053;-66
2022/11/16 06:56:29;;;;;;;2.58;1.17;;;;;;;;;;4895462;29;20060;-66
2022/11/16 06:59:00;;;;;;;2.15;0.85;;;;;;;;;;4910544;29;20052;-66
2022/11/16 07:01:31;;;;;;;2.72;0.98;;;;;;;;;;4895364;29;20056;-68
2022/11/16 07:04:10;;;;;;;1.73;0.95;;;;;;;;;;4865645;29;20061;-66
2022/11/16 07:06:46;;;;;;;4.20;1.10;;;;;;;;;;4825907;29;20427;-66
2022/11/16 07:09:18;;;;;;;5.30;1.27;;;;;;;;;;4845710;29;20066;-66
2022/11/16 07:11:49;;;;;;;4.60;1.10;;;;;;;;;;4821578;29;20054;-65
2022/11/16 07:14:21;;;;;;;3.40;1.33;;;;;;;;;;4845367;29;20054;-67
2022/11/16 07:16:52;;;;;;;4.03;1.50;;;;;;;;;;4823317;29;20054;-66
2022/11/16 07:19:28;;;;;;;4.30;1.33;;;;;;;;;;4834333;29;20049;-66
2022/11/16 07:21:59;;;;;;;8.10;1.13;;;;;;;;;;4836946;29;20516;-66
2022/11/16 07:24:29;;;;;;;4.10;1.23;;;;;;;;;;4803428;29;20054;-66
2022/11/16 07:27:00;;;;;;;2.95;1.13;;;;;;;;;;4803230;29;20063;-65
2022/11/16 07:29:35;;;;;;;2.33;0.93;;;;;;;;;;4839397;29;20058;-66
2022/11/16 07:32:39;;;;;;;2.45;1.35;;;;;;;;;;4839230;29;20062;-67
2022/11/16 07:35:18;;;;;;;3.17;1.20;;;;;;;;;;4858090;29;20049;-65
2022/11/16 07:37:48;;;;;;;4.55;1.33;;;;;;;;;;4842645;29;20053;-66
2022/11/16 07:40:19;;;;;;;3.10;1.23;;;;;;;;;;4876064;29;20056;-65
2022/11/16 07:42:50;;;;;;;2.33;0.93;;;;;;;;;;4910904;29;20052;-66
2022/11/16 07:45:46;;;;;;;2.17;0.95;;;;;;;;;;4876380;29;20057;-65
2022/11/16 07:48:16;;;;;;;2.63;1.10;;;;;;;;;;4876048;29;20741;-65
2022/11/16 07:51:06;;;;;;;2.47;1.15;;;;;;;;;;4862892;29;20053;-65
2022/11/16 07:53:43;;;;;;;2.55;1.13;;;;;;;;;;4891849;29;20056;-66
2022/11/16 07:56:13;;;;;;;4.47;1.13;;;;;;;;;;4926682;29;20386;-66
2022/11/16 07:58:44;;;;;;;3.33;1.00;;;;;;;;;;4894403;29;20052;-65
2022/11/16 08:01:17;;;;;;;2.47;1.10;;;;;;;;;;4894724;29;20060;-65
2022/11/16 08:03:53;;;;;;;3.40;1.60;;;;;;;;;;4876127;29;20425;-65
2022/11/16 08:06:26;;;;;;;3.60;1.40;;;;;;;;;;4883115;29;20061;-65
2022/11/16 08:08:57;;;;;;;2.67;1.20;;;;;;;;;;4857221;29;20064;-65
2022/11/16 08:11:29;;;;;;;3.45;1.27;;;;;;;;;;4856776;29;20057;-66
2022/11/16 08:13:59;;;;;;;3.58;1.85;;;;;;;;;;4856984;29;20402;-65
2022/11/16 08:16:32;;;;;;;3.90;1.02;;;;;;;;;;4873946;29;20053;-65
2022/11/16 08:19:09;;;;;;;6.22;1.13;;;;;;;;;;4838821;29;20095;-65
2022/11/16 08:21:39;;;;;;;2.33;1.20;;;;;;;;;;4838695;29;20140;-65
2022/11/16 08:24:10;;;;;;;1.90;0.88;;;;;;;;;;4875424;29;20053;-65
2022/11/16 08:26:43;;;;;;;4.60;1.30;;;;;;;;;;4830493;29;20045;-65
2022/11/16 08:29:15;;;;;;;3.25;1.30;;;;;;;;;;4856792;29;20502;-65
2022/11/16 08:31:49;;;;;;;4.03;1.60;;;;;;;;;;4838433;29;20388;-65
2022/11/16 08:34:21;;;;;;;2.75;1.13;;;;;;;;;;4813501;29;20520;-66
2022/11/16 08:36:57;;;;;;;3.88;1.15;;;;;;;;;;4803203;29;20118;-66
2022/11/16 08:39:40;;;;;;;4.13;1.40;;;;;;;;;;4820238;29;20054;-67
2022/11/16 08:42:10;;;;;;;4.55;1.40;;;;;;;;;;4838175;29;20058;-66
2022/11/16 08:44:45;;;;;;;3.03;1.35;;;;;;;;;;4838098;29;20080;-66
2022/11/16 08:47:18;;;;;;;3.60;1.23;;;;;;;;;;4796014;29;20060;-66
2022/11/16 08:49:54;;;;;;;4.03;1.00;;;;;;;;;;4811427;29;20522;-66
2022/11/16 08:52:27;;;;;;;5.60;1.30;;;;;;;;;;4863882;29;20061;-65
2022/11/16 08:54:59;;;;;;;3.80;1.20;;;;;;;;;;4878815;29;20572;-65
2022/11/16 08:57:30;;;;;;;2.42;1.30;;;;;;;;;;4878859;29;20052;-65
2022/11/16 09:00:06;;;;;;;4.38;1.20;;;;;;;;;;4878828;29;20068;-65
2022/11/16 09:02:36;;;;;;;4.97;1.60;;;;;;;;;;4802953;29;20064;-66
2022/11/16 09:05:10;;;;;;;2.95;0.98;;;;;;;;;;4827003;29;20069;-65
2022/11/16 09:07:42;;;;;;;4.93;0.90;;;;;;;;;;4794863;29;20524;-64
2022/11/16 09:10:13;;;;;;;2.45;1.25;;;;;;;;;;4771273;30;20056;-65
2022/11/16 09:12:43;;;;;;;2.60;1.30;;;;;;;;;;4784754;30;20537;-64
2022/11/16 09:15:13;;;;;;;3.88;1.10;;;;;;;;;;4782736;30;20063;-65
2022/11/16 09:17:42;;;;;;;2.83;1.15;;;;;;;;;;4787519;30;20063;-64
2022/11/16 09:20:13;;;;;;;3.83;1.15;;;;;;;;;;4794248;29;20047;-65
2022/11/16 09:22:43;;;;;;;4.00;1.00;;;;;;;;;;4853441;29;20057;-64
2022/11/16 09:25:13;;;;;;;2.58;1.45;;;;;;;;;;4851209;29;20062;-64
2022/11/16 09:27:43;;;;;;;2.15;1.02;;;;;;;;;;4860339;29;20066;-64
2022/11/16 09:30:13;;;;;;;3.00;1.20;;;;;;;;;;4880463;29;20509;-64
2022/11/16 09:32:43;;;;;;;2.17;1.00;;;;;;;;;;4897595;29;20065;-64
2022/11/16 09:35:13;;;;;;;2.47;1.35;;;;;;;;;;4907480;29;20500;-64
2022/11/16 09:37:43;;;;;;;3.22;1.13;;;;;;;;;;4925635;29;20059;-63
2022/11/16 09:40:13;;;;;;;6.05;1.58;;;;;;;;;;4953832;28;20054;-64
2022/11/16 09:43:06;;;;;;;4.85;1.42;;;;;;;;;;4992767;28;20069;-63
2022/11/16 09:45:56;;;;;;;3.55;1.17;;;;;;;;;;5012676;28;20061;-64
2022/11/16 09:48:27;;;;;;;2.08;1.15;;;;;;;;;;5012785;28;20050;-64
2022/11/16 09:51:06;;;;;;;2.20;1.00;;;;;;;;;;4992808;28;20065;-64
2022/11/16 09:53:42;;;;;;;3.22;1.23;;;;;;;;;;4960695;28;20058;-64
2022/11/16 09:56:24;;;;;;;6.35;1.70;;;;;;;;;;4992959;28;20509;-63
2022/11/16 09:59:18;;;;;;;2.60;1.42;;;;;;;;;;5015114;28;20049;-64
2022/11/16 10:01:55;;;;;;;2.90;1.27;;;;;;;;;;5052183;28;20053;-63
2022/11/16 10:04:48;;;;;;;6.75;1.63;;;;;;;;;;5031941;28;20041;-63
2022/11/16 10:07:35;;;;;;;5.32;1.50;;;;;;;;;;5031835;28;20057;-63
2022/11/16 10:10:15;;;;;;;2.53;1.20;;;;;;;;;;5032182;28;20072;-64
2022/11/16 10:13:11;;;;;;;4.40;1.23;;;;;;;;;;5031733;28;20072;-63
2022/11/16 10:16:01;;;;;;;3.15;1.15;;;;;;;;;;5031600;28;20072;-64
2022/11/16 10:18:44;;;;;;;2.60;1.52;;;;;;;;;;4982961;28;20057;-64
2022/11/16 10:21:23;;;;;;;3.75;1.35;;;;;;;;;;5031457;28;20049;-63
2022/11/16 10:24:02;;;;;;;2.65;1.20;;;;;;;;;;5015445;28;20386;-63
2022/11/16 10:26:38;;;;;;;;;;;;;;;;;;5032132;28;20053;-62
2022/11/16 10:29:22;;;;;;;3.47;1.40;;;;;;;;;;5031544;28;19928;-63
2022/11/16 10:32:16;;;;;;;5.05;1.25;;;;;;;;;;5031563;28;20065;-64
2022/11/16 10:34:53;;;;;;;4.60;1.20;;;;;;;;;;5011472;28;20065;-63
2022/11/16 10:37:29;;;;;;;6.28;1.20;;;;;;;;;;4943373;28;20053;-63
2022/11/16 10:40:17;;;;;;;3.90;1.33;;;;;;;;;;4943739;28;20065;-63
2022/11/16 10:43:05;;;;;;;4.20;1.50;;;;;;;;;;4991808;28;20067;-63
2022/11/16 10:45:40;;;;;;;4.10;1.10;;;;;;;;;;4991925;28;20069;-63
2022/11/16 10:48:15;;;;;;;2.47;1.50;;;;;;;;;;4991949;28;20450;-63
2022/11/16 10:50:49;;;;;;;3.90;1.30;;;;;;;;;;4979249;28;20061;-63
2022/11/16 10:53:36;;;;;;;6.80;1.40;;;;;;;;;;4956560;28;20503;-63
2022/11/16 10:56:30;;;;;;;4.90;1.45;;;;;;;;;;4972293;28;20058;-64
2022/11/16 10:59:05;;;;;;;5.50;1.92;;;;;;;;;;4972087;28;20577;-63
2022/11/16 11:01:42;;;;;;;5.45;1.70;;;;;;;;;;4972024;28;20055;-63
2022/11/16 11:04:25;;;;;;;7.20;1.95;;;;;;;;;;4924153;28;20610;-63
2022/11/16 11:06:56;;;;;;;3.90;2.15;;;;;;;;;;4972037;28;20522;-63
2022/11/16 11:09:33;;;;;;;8.10;2.63;;;;;;;;;;4955244;28;20512;-63
2022/11/16 11:15:25;;;;;;;5.72;1.70;;;;;;;;;;4882855;29;20055;-63
2022/11/16 11:18:14;;;;;;;6.00;1.85;;;;;;;;;;4952678;29;20570;-62
2022/11/16 11:20:51;;;;;;;2.85;1.10;;;;;;;;;;4952527;29;20082;-66
2022/11/16 11:23:24;;;;;;;2.53;1.30;;;;;;;;;;4952713;29;20059;-63
2022/11/16 11:25:58;;;;;;;5.10;1.50;;;;;;;;;;4952538;29;20051;-63
2022/11/16 11:28:37;;;;;;;7.78;1.58;;;;;;;;;;4983349;28;20061;-63
2022/11/16 11:31:45;;;;;;;6.70;2.00;;;;;;;;;;5010686;28;20461;-63
2022/11/16 11:34:46;;;;;;;5.93;1.88;;;;;;;;;;4914229;29;20067;-62
2022/11/16 11:37:21;;;;;;;5.30;1.88;;;;;;;;;;4897379;29;20059;-63
2022/11/16 11:40:16;;;;;;;4.85;1.73;;;;;;;;;;4932963;29;20504;-64
2022/11/16 11:42:58;;;;;;;9.10;1.80;;;;;;;;;;4942807;28;20069;-65
2022/11/16 11:45:35;;;;;;;4.53;1.60;;;;;;;;;;4951931;29;20059;-63
2022/11/16 11:48:46;;;;;;;3.78;1.33;;;;;;;;;;4951869;29;20113;-63
2022/11/16 11:51:30;;;;;;;3.33;1.00;;;;;;;;;;4894980;29;20061;-63
2022/11/16 11:54:04;;;;;;;2.20;1.20;;;;;;;;;;4895070;29;20147;-63
2022/11/16 11:56:34;;;;;;;6.10;1.40;;;;;;;;;;4894918;29;20528;-63
2022/11/16 11:59:04;;;;;;;5.55;1.30;;;;;;;;;;4895137;29;20060;-64
2022/11/16 12:01:47;;;;;;;3.15;1.60;;;;;;;;;;4913740;29;20048;-63
2022/11/16 12:04:51;;;;;;;3.95;1.42;;;;;;;;;;4894417;29;20052;-63
2022/11/16 12:07:46;;;;;;;5.85;1.58;;;;;;;;;;4864051;29;20848;-64
2022/11/16 12:10:29;;;;;;;2.40;1.20;;;;;;;;;;4875160;28;20067;-65
2022/11/16 12:13:20;;;;;;;3.15;1.40;;;;;;;;;;4970040;28;20074;-64
2022/11/16 12:16:07;;;;;;;;;;;;;;;;;;4911747;29;20740;-63
2022/11/16 12:19:05;;;;;;;3.67;1.67;;;;;;;;;;4919376;29;19922;-63
2022/11/16 12:22:00;;;;;;;2.22;1.02;;;;;;;;;;4950712;28;20055;-64
2022/11/16 12:24:55;;;;;;;2.95;1.33;;;;;;;;;;4950761;29;20067;-63
2022/11/16 12:27:42;;;;;;;3.17;0.93;;;;;;;;;;4954053;28;20062;-64
2022/11/16 12:30:21;;;;;;;1.88;1.00;;;;;;;;;;4969256;28;20058;-64
2022/11/16 12:33:12;;;;;;;2.88;0.95;;;;;;;;;;4970238;28;20054;-64
2022/11/16 12:36:09;;;;;;;1.52;0.75;;;;;;;;;;4930463;29;20944;-63
2022/11/16 12:38:58;;;;;;;4.00;2.10;;;;;;;;;;4931438;29;20082;-65
2022/11/16 12:41:38;;;;;;;1.98;0.60;;;;;;;;;;4927617;28;20091;-63
2022/11/16 12:44:11;;;;;;;1.50;0.60;;;;;;;;;;4970099;28;20550;-63
2022/11/16 12:46:56;;;;;;;1.10;0.60;;;;;;;;;;4959377;28;20547;-64
2022/11/16 12:49:37;;;;;;;4.07;0.60;;;;;;;;;;4934239;29;20054;-63
2022/11/16 12:52:42;;;;;;;5.35;0.70;;;;;;;;;;4950893;29;20051;-63
2022/11/16 12:55:22;;;;;;;4.10;0.52;;;;;;;;;;4950640;29;20059;-63
2022/11/16 12:58:05;;;;;;;0.82;0.50;;;;;;;;;;4951106;29;20515;-65
2022/11/16 13:00:50;;;;;;;2.00;1.27;;;;;;;;;;4950754;29;20058;-64
2022/11/16 13:03:27;;;;;;;2.92;0.63;;;;;;;;;;4956067;28;20069;-63
2022/11/16 13:06:03;;;;;;;2.38;0.75;;;;;;;;;;4988292;28;20058;-64
2022/11/16 13:08:43;;;;;;;1.92;0.55;;;;;;;;;;4953562;28;20059;-63
2022/11/16 13:11:34;;;;;;;1.08;0.50;;;;;;;;;;4985651;28;20065;-63
2022/11/16 13:14:12;;;;;;;2.47;0.40;;;;;;;;;;4973670;28;20058;-63
2022/11/16 13:16:43;;;;;;;2.45;0.60;;;;;;;;;;4940894;28;20047;-64
2022/11/16 13:19:16;;;;;;;2.22;0.60;;;;;;;;;;4950701;29;20054;-64
2022/11/16 13:22:12;;;;;;;1.80;0.68;;;;;;;;;;4951173;29;20503;-63
2022/11/16 13:24:59;;;;;;;2.80;0.70;;;;;;;;;;4944334;29;20051;-64
2022/11/16 13:27:44;;;;;;;2.95;0.70;;;;;;;;;;4951315;29;20054;-62
2022/11/16 13:30:21;;;;;;;1.20;0.65;;;;;;;;;;4951120;29;20047;-63
2022/11/16 13:33:16;;;;;;;1.98;0.90;;;;;;;;;;4950920;28;20059;-63
2022/11/16 13:35:46;;;;;;;2.60;0.60;;;;;;;;;;4965804;28;20062;-63
2022/11/16 13:38:53;;;;;;;1.80;0.55;;;;;;;;;;4983914;28;20042;-63
2022/11/16 13:41:32;;;;;;;1.85;1.58;;;;;;;;;;4993223;28;20633;-63
2022/11/16 13:44:17;;;;;;;1.10;0.60;;;;;;;;;;4973503;28;20062;-63
2022/11/16 13:47:03;;;;;;;1.48;0.32;;;;;;;;;;4973796;28;20055;-64
2022/11/16 13:49:39;;;;;;;0.60;0.40;;;;;;;;;;4995621;28;20056;-65
2022/11/16 13:52:12;;;;;;;3.65;0.63;;;;;;;;;;5012694;28;20057;-63
2022/11/16 13:54:54;;;;;;;4.63;0.60;;;;;;;;;;5012420;28;20042;-64
2022/11/16 13:57:30;;;;;;;;;;;;;;;;;;4980564;28;20061;-64
2022/11/16 14:00:01;;;;;;;5.90;0.40;;;;;;;;;;4996402;28;19921;-63
2022/11/16 14:02:35;;;;;;;2.10;0.50;;;;;;;;;;5024296;28;20517;-63
2022/11/16 14:05:12;;;;;;;1.95;0.60;;;;;;;;;;5031973;28;20045;-63
2022/11/16 14:07:48;;;;;;;2.03;0.60;;;;;;;;;;4992670;28;20054;-63
2022/11/16 14:10:44;;;;;;;2.08;0.50;;;;;;;;;;4993039;28;20046;-63
2022/11/16 14:13:44;;;;;;;3.75;1.10;;;;;;;;;;4953672;29;20509;-63
2022/11/16 14:16:18;;;;;;;2.67;0.90;;;;;;;;;;4906419;29;20050;-63
2022/11/16 14:18:50;;;;;;;3.45;1.35;;;;;;;;;;4953860;29;20411;-64
2022/11/16 14:22:06;;;;;;;1.55;0.82;;;;;;;;;;4953625;29;20071;-62
2022/11/16 14:24:50;;;;;;;0.70;0.50;;;;;;;;;;4896523;29;20064;-67
2022/11/16 14:27:37;;;;;;;2.50;0.40;;;;;;;;;;4925738;29;20052;-64
2022/11/16 14:30:20;;;;;;;1.10;0.68;;;;;;;;;;4918927;29;20527;-63
2022/11/16 14:32:54;;;;;;;1.58;0.40;;;;;;;;;;4934323;29;20056;-63
2022/11/16 14:35:38;;;;;;;1.15;0.60;;;;;;;;;;4934328;29;20484;-63
2022/11/16 14:38:23;;;;;;;0.88;0.40;;;;;;;;;;4934120;29;20058;-63
2022/11/16 14:40:56;;;;;;;0.65;0.43;;;;;;;;;;4934240;29;20522;-63
2022/11/16 14:43:34;;;;;;;1.60;0.50;;;;;;;;;;4934200;29;20072;-63
2022/11/16 14:46:25;;;;;;;1.13;0.43;;;;;;;;;;4963996;28;20065;-64
2022/11/16 14:48:58;;;;;;;1.00;0.45;;;;;;;;;;4972430;28;20047;-63
2022/11/16 14:51:41;;;;;;;2.25;0.70;;;;;;;;;;4978205;28;20058;-63
2022/11/16 14:54:15;;;;;;;0.70;0.40;;;;;;;;;;5011643;28;20069;-63
2022/11/16 14:56:59;;;;;;;0.63;0.40;;;;;;;;;;4972240;28;20059;-64
2022/11/16 14:59:30;;;;;;;0.47;0.40;;;;;;;;;;5004132;28;20073;-64
2022/11/16 15:02:14;;;;;;;4.43;1.70;;;;;;;;;;4991108;28;20051;-63
2022/11/16 15:04:44;;;;;;;0.82;0.50;;;;;;;;;;4999418;28;20084;-63
2022/11/16 15:07:17;;;;;;;0.68;0.60;;;;;;;;;;5010856;28;20058;-63
2022/11/16 15:09:59;;;;;;;1.70;0.57;;;;;;;;;;4994392;28;20057;-63
2022/11/16 15:12:41;;;;;;;1.23;0.40;;;;;;;;;;5010966;28;20057;-63
2022/11/16 15:15:15;;;;;;;1.73;0.80;;;;;;;;;;4987623;28;20051;-63
2022/11/16 15:18:00;;;;;;;1.48;0.52;;;;;;;;;;4990757;28;20046;-63
2022/11/16 15:20:32;;;;;;;2.28;0.40;;;;;;;;;;4990916;28;20510;-63
2022/11/16 15:23:12;;;;;;;0.43;0.35;;;;;;;;;;4991386;28;20065;-63
2022/11/16 15:25:53;;;;;;;1.08;0.40;;;;;;;;;;4990977;28;20065;-63
2022/11/16 15:28:26;;;;;;;0.98;0.40;;;;;;;;;;4967847;28;20414;-63
2022/11/16 15:30:58;;;;;;;1.50;0.50;;;;;;;;;;4952281;28;20408;-63
2022/11/16 15:33:51;;;;;;;1.88;0.90;;;;;;;;;;4952202;28;20062;-63
2022/11/16 15:36:48;;;;;;;2.00;0.60;;;;;;;;;;4952339;28;20051;-63
2022/11/16 15:39:26;;;;;;;2.75;0.50;;;;;;;;;;4966374;28;20426;-64
2022/11/16 15:41:56;;;;;;;1.85;0.40;;;;;;;;;;4990846;28;20054;-64
2022/11/16 15:44:33;;;;;;;0.98;0.60;;;;;;;;;;4990875;28;20224;-64
2022/11/16 15:47:04;;;;;;;2.25;0.60;;;;;;;;;;4990866;28;20054;-63
2022/11/16 15:49:39;;;;;;;1.00;0.50;;;;;;;;;;4923147;28;20054;-63
2022/11/16 15:52:10;;;;;;;1.42;0.60;;;;;;;;;;4943430;28;20084;-64
2022/11/16 15:57:28;;;;;;;3.78;0.45;;;;;;;;;;5013132;28;20057;-62
2022/11/16 16:00:00;;;;;;;1.17;0.60;;;;;;;;;;5036906;28;20053;-63
2022/11/16 16:02:32;;;;;;;1.05;0.50;;;;;;;;;;5050078;28;20053;-63
2022/11/16 16:05:03;;;;;;;0.80;0.40;;;;;;;;;;5000362;28;20064;-65
2022/11/16 16:07:40;;;;;;;0.93;0.65;;;;;;;;;;5049748;28;20416;-62
2022/11/16 16:10:19;;;;;;;;;;;;;;;;;;5050055;28;20049;-61
2022/11/16 16:12:58;;;;;;;1.10;0.50;;;;;;;;;;5029420;28;20059;-61
2022/11/16 16:15:35;;;;;;;1.20;0.50;;;;;;;;;;5009881;28;20058;-61
2022/11/16 16:18:39;;;;;;;2.78;0.40;;;;;;;;;;4993248;28;20050;-61
2022/11/16 16:21:05;;;;;;;1.02;0.50;;;;;;;;;;5009761;28;20543;-62
2022/11/16 16:23:55;;;;;;;2.47;0.60;;;;;;;;;;5009800;28;20050;-62
2022/11/16 16:26:25;;;;;;;3.25;0.70;;;;;;;;;;5009762;28;20061;-62
2022/11/16 16:28:55;;;;;;;6.22;0.47;;;;;;;;;;5009923;28;20053;-61
2022/11/16 16:31:25;;;;;;;1.83;0.32;;;;;;;;;;4993510;28;20050;-62
2022/11/16 16:33:58;;;;;;;1.05;0.60;;;;;;;;;;4951011;29;20078;-63